createdAt,value
2016-09-04T00:01:03.042Z,0
2016-09-04T00:02:15.334Z,0
2016-09-04T00:03:27.632Z,0
2016-09-04T00:04:38.504Z,0
2016-09-04T00:05:50.781Z,0
2016-09-04T00:07:03.066Z,0
2016-09-04T00:08:15.354Z,0
2016-09-04T00:09:27.626Z,0
2016-09-04T00:10:39.916Z,0
2016-09-04T00:11:52.215Z,0
2016-09-04T00:13:03.789Z,0
2016-09-04T00:14:16.058Z,0
2016-09-04T00:15:28.318Z,0
2016-09-04T00:16:40.597Z,0
2016-09-04T00:17:52.871Z,0
2016-09-04T00:19:05.137Z,0
2016-09-04T00:20:16.691Z,0
2016-09-04T00:21:28.965Z,0
2016-09-04T00:22:41.249Z,0
2016-09-04T00:23:53.515Z,0
2016-09-04T00:25:05.793Z,0
2016-09-04T00:26:18.071Z,0
2016-09-04T00:27:29.637Z,0
2016-09-04T00:28:41.909Z,0
2016-09-04T00:29:54.473Z,0
2016-09-04T00:31:06.038Z,0
2016-09-04T00:32:18.303Z,0
2016-09-04T00:33:29.890Z,0
2016-09-04T00:34:41.478Z,0
2016-09-04T00:35:53.763Z,0
2016-09-04T00:37:05.322Z,0
2016-09-04T00:38:17.610Z,0
2016-09-04T00:39:29.873Z,0
2016-09-04T00:40:42.162Z,0
2016-09-04T00:41:54.433Z,0
2016-09-04T00:43:06.004Z,0
2016-09-04T00:44:18.286Z,0
2016-09-04T00:45:30.544Z,0
2016-09-04T00:46:42.117Z,0
2016-09-04T00:47:52.990Z,0
2016-09-04T00:49:05.253Z,0
2016-09-04T00:50:17.663Z,0
2016-09-04T00:51:29.247Z,0
2016-09-04T00:52:40.823Z,0
2016-09-04T00:53:53.098Z,0
2016-09-04T00:55:05.387Z,0
2016-09-04T00:56:17.660Z,0
2016-09-04T00:57:29.926Z,0
2016-09-04T00:58:42.207Z,0
2016-09-04T00:59:53.771Z,0
2016-09-04T01:01:06.055Z,0
2016-09-04T01:02:18.335Z,0
2016-09-04T01:03:30.632Z,0
2016-09-04T01:04:42.196Z,0
2016-09-04T01:05:53.770Z,0
2016-09-04T01:07:06.030Z,0
2016-09-04T01:08:18.312Z,0
2016-09-04T01:09:29.899Z,0
2016-09-04T01:10:41.468Z,0
2016-09-04T01:11:53.749Z,0
2016-09-04T01:13:06.026Z,0
2016-09-04T01:14:17.601Z,0
2016-09-04T01:15:29.888Z,0
2016-09-04T01:16:41.459Z,0
2016-09-04T01:17:53.745Z,0
2016-09-04T01:19:06.017Z,0
2016-09-04T01:20:18.292Z,0
2016-09-04T01:21:30.578Z,0
2016-09-04T01:22:42.138Z,0
2016-09-04T01:23:53.735Z,0
2016-09-04T01:25:05.287Z,0
2016-09-04T01:26:16.856Z,0
2016-09-04T01:27:29.133Z,0
2016-09-04T01:28:41.403Z,0
2016-09-04T01:29:53.675Z,0
2016-09-04T01:31:05.941Z,0
2016-09-04T01:32:18.335Z,0
2016-09-04T01:33:30.643Z,0
2016-09-04T01:34:42.237Z,0
2016-09-04T01:35:54.520Z,0
2016-09-04T01:37:06.100Z,0
2016-09-04T01:38:18.385Z,0
2016-09-04T01:39:30.668Z,0
2016-09-04T01:40:42.945Z,0
2016-09-04T01:41:55.217Z,0
2016-09-04T01:43:07.509Z,0
2016-09-04T01:44:19.082Z,0
2016-09-04T01:45:31.365Z,0
2016-09-04T01:46:43.646Z,0
2016-09-04T01:47:55.908Z,0
2016-09-04T01:49:08.180Z,0
2016-09-04T01:50:20.460Z,0
2016-09-04T01:51:32.729Z,0
2016-09-04T01:52:45.010Z,0
2016-09-04T01:53:57.269Z,0
2016-09-04T01:55:08.831Z,0
2016-09-04T01:56:21.102Z,0
2016-09-04T01:57:31.969Z,0
2016-09-04T01:58:43.067Z,0
2016-09-04T01:59:55.341Z,0
2016-09-04T02:01:07.610Z,0
2016-09-04T02:02:19.197Z,0
2016-09-04T02:03:30.781Z,0
2016-09-04T02:04:43.045Z,0
2016-09-04T02:05:55.332Z,0
2016-09-04T02:07:07.608Z,0
2016-09-04T02:08:19.186Z,0
2016-09-04T02:09:31.453Z,0
2016-09-04T02:10:43.744Z,0
2016-09-04T02:11:56.019Z,0
2016-09-04T02:13:07.576Z,0
2016-09-04T02:14:19.869Z,0
2016-09-04T02:15:32.137Z,0
2016-09-04T02:16:44.398Z,0
2016-09-04T02:17:56.664Z,0
2016-09-04T02:19:08.231Z,0
2016-09-04T02:20:19.816Z,0
2016-09-04T02:21:32.086Z,0
2016-09-04T02:22:44.366Z,0
2016-09-04T02:23:56.656Z,0
2016-09-04T02:25:08.931Z,0
2016-09-04T02:26:21.202Z,0
2016-09-04T02:27:33.484Z,0
2016-09-04T02:28:45.760Z,0
2016-09-04T02:29:56.646Z,0
2016-09-04T02:31:08.967Z,0
2016-09-04T02:32:21.237Z,0
2016-09-04T02:33:32.789Z,0
2016-09-04T02:34:45.065Z,0
2016-09-04T02:35:57.333Z,0
2016-09-04T02:37:09.855Z,0
2016-09-04T02:38:21.456Z,0
2016-09-04T02:39:33.758Z,0
2016-09-04T02:40:45.340Z,0
2016-09-04T02:41:57.606Z,0
2016-09-04T02:43:09.866Z,0
2016-09-04T02:44:22.135Z,0
2016-09-04T02:45:34.400Z,0
2016-09-04T02:46:46.666Z,0
2016-09-04T02:47:58.948Z,0
2016-09-04T02:49:11.197Z,0
2016-09-04T02:50:23.468Z,0
2016-09-04T02:51:35.792Z,0
2016-09-04T02:52:48.060Z,0
2016-09-04T02:54:00.323Z,0
2016-09-04T02:55:12.592Z,0
2016-09-04T02:56:24.872Z,0
2016-09-04T02:57:36.453Z,0
2016-09-04T02:58:47.315Z,0
2016-09-04T02:59:59.590Z,0
2016-09-04T03:32:47.765Z,0
2016-09-04T03:34:00.060Z,0
2016-09-04T03:35:12.321Z,0
2016-09-04T03:36:23.876Z,0
2016-09-04T03:37:36.153Z,0
2016-09-04T03:38:47.742Z,0
2016-09-04T03:39:59.296Z,0
2016-09-04T03:41:11.560Z,0
2016-09-04T03:42:23.860Z,0
2016-09-04T03:43:35.419Z,0
2016-09-04T03:44:47.670Z,0
2016-09-04T03:45:59.932Z,0
2016-09-04T03:47:11.747Z,0
2016-09-04T03:48:23.308Z,0
2016-09-04T03:49:33.465Z,0
2016-09-04T03:50:45.755Z,0
2016-09-04T03:51:58.018Z,0
2016-09-04T03:53:10.284Z,0
2016-09-04T03:54:21.152Z,0
2016-09-04T03:55:33.405Z,0
2016-09-04T03:56:45.707Z,0
2016-09-04T03:57:57.286Z,0
2016-09-04T03:59:08.882Z,0
2016-09-04T04:00:20.438Z,0
2016-09-04T04:01:32.728Z,0
2016-09-04T04:02:44.308Z,0
2016-09-04T04:03:55.882Z,0
2016-09-04T04:05:08.159Z,0
2016-09-04T04:06:20.425Z,0
2016-09-04T04:07:32.678Z,0
2016-09-04T04:08:44.241Z,0
2016-09-04T04:09:56.498Z,0
2016-09-04T04:11:08.062Z,0
2016-09-04T04:12:20.349Z,5
2016-09-04T04:13:32.622Z,5
2016-09-04T04:14:44.895Z,5
2016-09-04T04:15:57.164Z,5
2016-09-04T04:17:09.442Z,5
2016-09-04T04:18:21.735Z,5
2016-09-04T04:19:32.602Z,5
2016-09-04T04:20:44.848Z,10
2016-09-04T04:21:56.439Z,10
2016-09-04T04:23:08.966Z,10
2016-09-04T04:24:21.245Z,10
2016-09-04T04:25:32.101Z,15
2016-09-04T04:26:43.706Z,15
2016-09-04T04:27:55.265Z,15
2016-09-04T04:29:07.085Z,15
2016-09-04T04:30:19.365Z,20
2016-09-04T04:31:31.646Z,20
2016-09-04T04:32:43.922Z,20
2016-09-04T04:33:56.180Z,20
2016-09-04T04:35:07.769Z,20
2016-09-04T04:36:17.923Z,25
2016-09-04T04:37:30.204Z,30
2016-09-04T04:38:42.472Z,30
2016-09-04T04:39:54.736Z,35
2016-09-04T04:41:07.028Z,35
2016-09-04T04:42:17.886Z,35
2016-09-04T04:43:30.181Z,45
2016-09-04T04:44:42.466Z,55
2016-09-04T04:45:54.748Z,55
2016-09-04T04:47:07.062Z,50
2016-09-04T04:48:19.328Z,45
2016-09-04T04:49:30.892Z,55
2016-09-04T04:50:43.175Z,65
2016-09-04T04:51:54.739Z,70
2016-09-04T04:53:06.307Z,95
2016-09-04T04:54:18.577Z,90
2016-09-04T04:55:30.844Z,70
2016-09-04T04:56:43.130Z,65
2016-09-04T04:57:55.417Z,85
2016-09-04T04:59:07.931Z,90
2016-09-04T05:00:20.446Z,80
2016-09-04T05:01:32.003Z,85
2016-09-04T05:02:44.279Z,110
2016-09-04T05:03:55.858Z,110
2016-09-04T05:05:07.424Z,90
2016-09-04T05:06:19.698Z,80
2016-09-04T05:07:31.960Z,65
2016-09-04T05:08:43.541Z,60
2016-09-04T05:09:55.805Z,60
2016-09-04T05:11:07.375Z,60
2016-09-04T05:12:19.641Z,70
2016-09-04T05:13:31.914Z,65
2016-09-04T05:14:42.768Z,70
2016-09-04T05:15:55.031Z,70
2016-09-04T05:17:07.310Z,65
2016-09-04T05:18:19.602Z,60
2016-09-04T05:19:31.880Z,60
2016-09-04T05:20:44.141Z,65
2016-09-04T05:21:56.442Z,65
2016-09-04T05:23:08.710Z,65
2016-09-04T05:24:20.988Z,65
2016-09-04T05:25:33.258Z,70
2016-09-04T05:26:44.811Z,70
2016-09-04T05:27:57.096Z,75
2016-09-04T05:29:07.971Z,75
2016-09-04T05:30:20.262Z,80
2016-09-04T05:31:32.535Z,85
2016-09-04T05:32:44.088Z,90
2016-09-04T05:33:55.657Z,90
2016-09-04T05:35:07.929Z,105
2016-09-04T05:36:19.521Z,95
2016-09-04T05:37:31.787Z,95
2016-09-04T05:38:43.357Z,100
2016-09-04T05:39:55.641Z,105
2016-09-04T05:41:07.921Z,110
2016-09-04T05:42:20.198Z,110
2016-09-04T05:43:32.469Z,110
2016-09-04T05:44:44.738Z,105
2016-09-04T05:45:57.009Z,105
2016-09-04T05:47:09.282Z,95
2016-09-04T05:48:21.550Z,100
2016-09-04T05:49:33.830Z,100
2016-09-04T05:50:46.105Z,100
2016-09-04T05:51:56.969Z,105
2016-09-04T05:53:09.245Z,105
2016-09-04T05:54:21.553Z,100
2016-09-04T05:55:33.833Z,100
2016-09-04T05:56:46.122Z,105
2016-09-04T05:57:58.383Z,105
2016-09-04T05:59:10.649Z,115
2016-09-04T06:00:21.541Z,120
2016-09-04T06:01:33.126Z,120
2016-09-04T06:02:45.417Z,125
2016-09-04T06:03:57.698Z,135
2016-09-04T06:05:09.976Z,150
2016-09-04T06:06:22.272Z,155
2016-09-04T06:07:33.835Z,165
2016-09-04T06:08:46.126Z,170
2016-09-04T06:09:58.403Z,175
2016-09-04T06:11:10.685Z,175
2016-09-04T06:12:22.979Z,170
2016-09-04T06:13:35.239Z,175
2016-09-04T06:14:47.524Z,170
2016-09-04T06:15:57.686Z,175
2016-09-04T06:17:08.551Z,180
2016-09-04T06:18:20.832Z,180
2016-09-04T06:19:33.105Z,185
2016-09-04T06:20:45.391Z,185
2016-09-04T06:21:56.963Z,185
2016-09-04T06:23:09.239Z,190
2016-09-04T06:24:21.526Z,190
2016-09-04T06:25:33.802Z,190
2016-09-04T06:26:46.072Z,195
2016-09-04T06:27:58.366Z,200
2016-09-04T06:29:10.650Z,200
2016-09-04T06:30:22.925Z,205
2016-09-04T06:31:35.213Z,200
2016-09-04T06:32:47.509Z,200
2016-09-04T06:33:59.790Z,200
2016-09-04T06:35:12.094Z,200
2016-09-04T06:36:24.388Z,195
2016-09-04T06:37:35.943Z,200
2016-09-04T06:38:48.220Z,200
2016-09-04T06:40:00.510Z,200
2016-09-04T06:41:12.789Z,200
2016-09-04T06:42:25.095Z,205
2016-09-04T06:43:37.370Z,210
2016-09-04T06:44:49.658Z,210
2016-09-04T06:46:01.930Z,215
2016-09-04T06:47:14.231Z,210
2016-09-04T06:48:25.806Z,215
2016-09-04T06:49:38.093Z,215
2016-09-04T06:50:50.377Z,215
2016-09-04T06:52:01.950Z,215
2016-09-04T06:53:14.231Z,210
2016-09-04T06:54:26.507Z,210
2016-09-04T06:55:38.777Z,205
2016-09-04T06:56:50.358Z,205
2016-09-04T06:58:01.942Z,200
2016-09-04T06:59:14.221Z,195
2016-09-04T07:00:26.481Z,185
2016-09-04T07:01:38.060Z,185
2016-09-04T07:02:50.335Z,190
2016-09-04T07:04:02.639Z,190
2016-09-04T07:05:14.912Z,195
2016-09-04T07:06:27.187Z,195
2016-09-04T07:07:39.482Z,195
2016-09-04T07:08:51.754Z,190
2016-09-04T07:10:03.320Z,185
2016-09-04T07:11:15.616Z,180
2016-09-04T07:12:27.894Z,180
2016-09-04T07:13:40.165Z,185
2016-09-04T07:14:51.736Z,185
2016-09-04T07:16:04.002Z,185
2016-09-04T07:17:14.873Z,180
2016-09-04T07:18:27.142Z,175
2016-09-04T07:19:39.409Z,165
2016-09-04T07:20:51.707Z,165
2016-09-04T07:22:03.983Z,170
2016-09-04T07:23:16.252Z,170
2016-09-04T07:24:28.516Z,170
2016-09-04T07:25:40.078Z,170
2016-09-04T07:26:51.678Z,165
2016-09-04T07:28:03.970Z,165
2016-09-04T07:29:15.553Z,165
2016-09-04T07:30:27.119Z,160
2016-09-04T07:31:38.737Z,165
2016-09-04T07:32:49.610Z,165
2016-09-04T07:34:01.889Z,160
2016-09-04T07:35:14.165Z,160
2016-09-04T07:36:26.433Z,155
2016-09-04T07:37:38.010Z,150
2016-09-04T07:38:49.600Z,150
2016-09-04T07:40:01.184Z,150
2016-09-04T07:41:12.763Z,150
2016-09-04T07:42:25.061Z,150
2016-09-04T07:43:36.692Z,150
2016-09-04T07:44:48.985Z,150
2016-09-04T07:46:01.243Z,155
2016-09-04T07:47:13.522Z,160
2016-09-04T07:48:25.814Z,170
2016-09-04T07:49:38.085Z,175
2016-09-04T07:50:49.656Z,180
2016-09-04T07:52:01.956Z,180
2016-09-04T07:53:14.466Z,180
2016-09-04T07:54:26.753Z,180
2016-09-04T07:55:39.026Z,180
2016-09-04T07:56:51.339Z,185
2016-09-04T07:58:03.853Z,185
2016-09-04T07:59:16.139Z,185
2016-09-04T08:00:26.294Z,185
2016-09-04T08:01:37.846Z,185
2016-09-04T08:02:49.435Z,185
2016-09-04T08:04:01.706Z,185
2016-09-04T08:05:13.280Z,185
2016-09-04T08:06:25.552Z,190
2016-09-04T08:07:37.125Z,190
2016-09-04T08:08:49.422Z,190
2016-09-04T08:10:01.719Z,195
2016-09-04T08:11:12.596Z,190
2016-09-04T08:12:24.875Z,190
2016-09-04T08:13:37.141Z,190
2016-09-04T08:14:49.439Z,190
2016-09-04T08:16:00.995Z,190
2016-09-04T08:17:12.583Z,195
2016-09-04T08:18:24.157Z,195
2016-09-04T08:19:36.437Z,200
2016-09-04T08:20:48.728Z,195
2016-09-04T08:22:01.001Z,195
2016-09-04T08:23:12.577Z,195
2016-09-04T08:24:24.869Z,195
2016-09-04T08:25:37.139Z,195
2016-09-04T08:26:48.709Z,200
2016-09-04T08:28:00.262Z,200
2016-09-04T08:29:12.083Z,200
2016-09-04T08:30:24.362Z,200
2016-09-04T08:31:36.638Z,200
2016-09-04T08:32:48.223Z,200
2016-09-04T08:34:00.501Z,200
2016-09-04T08:35:12.786Z,205
2016-09-04T08:36:23.666Z,205
2016-09-04T08:37:35.944Z,205
2016-09-04T08:38:48.231Z,205
2016-09-04T08:40:00.532Z,205
2016-09-04T08:41:12.803Z,205
2016-09-04T08:42:25.078Z,205
2016-09-04T08:43:37.395Z,205
2016-09-04T08:44:48.959Z,205
2016-09-04T08:46:01.234Z,205
2016-09-04T08:47:13.538Z,205
2016-09-04T08:48:25.818Z,210
2016-09-04T08:49:38.146Z,210
2016-09-04T08:50:50.430Z,210
2016-09-04T08:52:02.725Z,210
2016-09-04T08:53:14.292Z,210
2016-09-04T08:54:26.591Z,210
2016-09-04T08:55:38.887Z,210
2016-09-04T08:56:51.140Z,210
2016-09-04T08:58:03.425Z,210
2016-09-04T08:59:14.999Z,215
2016-09-04T09:00:27.274Z,220
2016-09-04T09:01:39.565Z,220
2016-09-04T09:02:51.850Z,220
2016-09-04T09:04:04.130Z,220
2016-09-04T09:05:15.698Z,225
2016-09-04T09:06:27.302Z,225
2016-09-04T09:07:39.604Z,225
2016-09-04T09:08:51.904Z,225
2016-09-04T09:10:04.222Z,225
2016-09-04T09:11:15.802Z,230
2016-09-04T09:12:28.077Z,230
2016-09-04T09:13:39.648Z,230
2016-09-04T09:14:51.238Z,230
2016-09-04T09:16:03.526Z,230
2016-09-04T09:17:15.815Z,230
2016-09-04T09:18:28.100Z,230
2016-09-04T09:19:40.391Z,230
2016-09-04T09:20:52.674Z,230
2016-09-04T09:22:04.979Z,230
2016-09-04T09:23:16.561Z,235
2016-09-04T09:24:28.833Z,235
2016-09-04T09:25:40.401Z,235
2016-09-04T09:26:51.282Z,240
2016-09-04T09:28:03.582Z,240
2016-09-04T09:29:15.160Z,245
2016-09-04T09:30:26.724Z,245
2016-09-04T09:31:38.299Z,250
2016-09-04T09:32:49.863Z,255
2016-09-04T09:34:02.146Z,255
2016-09-04T09:35:14.430Z,245
2016-09-04T09:36:26.701Z,260
2016-09-04T09:37:38.268Z,260
2016-09-04T09:38:49.837Z,260
2016-09-04T09:40:02.127Z,255
2016-09-04T09:41:14.454Z,260
2016-09-04T09:42:26.750Z,260
2016-09-04T09:43:39.021Z,260
2016-09-04T09:44:51.308Z,260
2016-09-04T09:46:03.595Z,255
2016-09-04T09:47:15.853Z,255
2016-09-04T09:48:27.438Z,255
2016-09-04T09:49:39.725Z,260
2016-09-04T09:50:52.007Z,270
2016-09-04T09:52:04.293Z,270
2016-09-04T09:53:16.585Z,275
2016-09-04T09:54:28.170Z,260
2016-09-04T09:55:40.469Z,265
2016-09-04T09:56:52.068Z,260
2016-09-04T09:58:04.357Z,270
2016-09-04T09:59:16.648Z,255
2016-09-04T10:00:27.528Z,260
2016-09-04T10:01:39.812Z,255
2016-09-04T10:02:52.137Z,250
2016-09-04T10:04:04.459Z,255
2016-09-04T10:05:16.752Z,255
2016-09-04T10:06:28.332Z,250
2016-09-04T10:07:40.619Z,265
2016-09-04T10:08:52.911Z,265
2016-09-04T10:10:05.196Z,270
2016-09-04T10:11:17.471Z,270
2016-09-04T10:12:29.761Z,270
2016-09-04T10:13:42.056Z,270
2016-09-04T10:14:54.333Z,270
2016-09-04T10:16:06.637Z,265
2016-09-04T10:17:18.914Z,265
2016-09-04T10:18:30.512Z,260
2016-09-04T10:19:42.807Z,260
2016-09-04T10:20:55.084Z,265
2016-09-04T10:22:07.385Z,265
2016-09-04T10:23:18.964Z,260
2016-09-04T10:24:31.259Z,255
2016-09-04T10:25:43.555Z,255
2016-09-04T10:26:55.156Z,255
2016-09-04T10:28:07.446Z,250
2016-09-04T10:29:19.734Z,255
2016-09-04T10:30:31.302Z,250
2016-09-04T10:31:43.566Z,245
2016-09-04T10:32:55.891Z,245
2016-09-04T10:34:08.164Z,250
2016-09-04T10:35:20.442Z,245
2016-09-04T10:36:32.014Z,245
2016-09-04T10:37:44.295Z,245
2016-09-04T10:38:55.885Z,245
2016-09-04T10:40:08.169Z,250
2016-09-04T10:41:19.761Z,250
2016-09-04T10:42:32.058Z,245
2016-09-04T10:43:44.347Z,250
2016-09-04T10:44:55.951Z,255
2016-09-04T10:46:08.263Z,250
2016-09-04T10:47:20.756Z,250
2016-09-04T10:48:33.039Z,255
2016-09-04T10:49:44.630Z,255
2016-09-04T10:50:56.244Z,255
2016-09-04T10:52:08.544Z,250
2016-09-04T10:53:20.137Z,250
2016-09-04T10:54:32.428Z,250
2016-09-04T10:55:44.011Z,250
2016-09-04T10:56:56.304Z,250
2016-09-04T10:58:07.902Z,250
2016-09-04T10:59:20.197Z,250
2016-09-04T11:00:32.487Z,250
2016-09-04T11:01:44.774Z,250
2016-09-04T11:02:57.060Z,250
2016-09-04T11:04:09.589Z,250
2016-09-04T11:05:21.178Z,250
2016-09-04T11:06:33.454Z,250
2016-09-04T11:07:45.758Z,250
2016-09-04T11:08:58.448Z,250
2016-09-04T11:10:10.735Z,255
2016-09-04T11:11:23.025Z,255
2016-09-04T11:12:34.615Z,255
2016-09-04T11:13:46.907Z,255
2016-09-04T11:14:59.181Z,255
2016-09-04T11:16:10.745Z,255
2016-09-04T11:17:23.041Z,255
2016-09-04T11:18:34.604Z,255
2016-09-04T11:19:45.509Z,255
2016-09-04T11:20:57.121Z,255
2016-09-04T11:22:09.402Z,260
2016-09-04T11:23:20.984Z,260
2016-09-04T11:24:33.278Z,260
2016-09-04T11:25:44.157Z,260
2016-09-04T11:26:56.474Z,260
2016-09-04T11:28:08.808Z,260
2016-09-04T11:29:21.109Z,260
2016-09-04T11:30:32.700Z,260
2016-09-04T11:31:44.976Z,260
2016-09-04T11:32:57.254Z,260
2016-09-04T11:34:08.842Z,260
2016-09-04T11:35:20.419Z,255
2016-09-04T11:36:32.724Z,255
2016-09-04T11:37:44.298Z,260
2016-09-04T11:38:56.586Z,260
2016-09-04T11:40:08.886Z,260
2016-09-04T11:41:21.171Z,260
2016-09-04T11:42:32.750Z,260
2016-09-04T11:43:45.042Z,260
2016-09-04T11:44:57.328Z,260
2016-09-04T11:46:09.624Z,260
2016-09-04T11:47:21.237Z,260
2016-09-04T11:48:33.510Z,265
2016-09-04T11:49:45.814Z,260
2016-09-04T11:50:58.123Z,260
2016-09-04T11:52:10.434Z,260
2016-09-04T11:53:22.705Z,260
2016-09-04T11:54:34.292Z,260
2016-09-04T11:55:46.591Z,265
2016-09-04T11:56:58.193Z,265
2016-09-04T11:58:10.482Z,265
2016-09-04T11:59:22.766Z,265
2016-09-04T12:00:35.081Z,265
2016-09-04T12:01:45.966Z,265
2016-09-04T12:02:58.271Z,265
2016-09-04T12:04:10.569Z,265
2016-09-04T12:05:21.463Z,265
2016-09-04T12:06:33.783Z,265
2016-09-04T12:07:46.056Z,270
2016-09-04T12:08:58.352Z,270
2016-09-04T12:10:10.662Z,270
2016-09-04T12:11:22.949Z,265
2016-09-04T12:12:35.226Z,265
2016-09-04T12:13:46.813Z,265
2016-09-04T12:14:59.103Z,265
2016-09-04T12:16:11.384Z,265
2016-09-04T12:17:23.670Z,265
2016-09-04T12:18:35.960Z,265
2016-09-04T12:19:48.239Z,265
2016-09-04T12:20:59.829Z,265
2016-09-04T12:22:12.148Z,270
2016-09-04T12:23:23.020Z,265
2016-09-04T12:24:35.300Z,270
2016-09-04T12:25:47.595Z,265
2016-09-04T12:26:59.884Z,265
2016-09-04T12:28:12.173Z,265
2016-09-04T12:29:24.485Z,270
2016-09-04T12:30:36.773Z,270
2016-09-04T12:31:49.111Z,265
2016-09-04T12:33:01.401Z,265
2016-09-04T12:34:13.009Z,260
2016-09-04T12:35:25.297Z,260
2016-09-04T12:36:36.874Z,265
2016-09-04T12:37:47.751Z,265
2016-09-04T12:39:00.031Z,265
2016-09-04T12:40:12.342Z,265
2016-09-04T12:41:24.633Z,270
2016-09-04T12:42:36.936Z,270
2016-09-04T12:43:49.227Z,270
2016-09-04T12:45:01.516Z,270
2016-09-04T12:46:13.105Z,270
2016-09-04T12:47:25.366Z,265
2016-09-04T12:48:36.953Z,255
2016-09-04T12:49:48.548Z,260
2016-09-04T12:51:00.860Z,260
2016-09-04T12:52:13.162Z,250
2016-09-04T12:53:25.516Z,250
2016-09-04T12:54:37.838Z,265
2016-09-04T12:55:50.127Z,270
2016-09-04T12:57:02.447Z,260
2016-09-04T12:58:14.748Z,245
2016-09-04T12:59:25.656Z,240
2016-09-04T13:00:37.958Z,230
2016-09-04T13:01:50.261Z,255
2016-09-04T13:03:02.579Z,245
2016-09-04T13:04:14.896Z,245
2016-09-04T13:05:27.200Z,260
2016-09-04T13:06:39.480Z,270
2016-09-04T13:07:51.797Z,275
2016-09-04T13:09:03.381Z,280
2016-09-04T13:10:14.970Z,290
2016-09-04T13:11:27.248Z,300
2016-09-04T13:12:38.826Z,290
2016-09-04T13:13:51.112Z,300
2016-09-04T13:15:03.413Z,300
2016-09-04T13:16:15.698Z,290
2016-09-04T13:17:27.285Z,275
2016-09-04T13:18:39.606Z,190
2016-09-04T13:19:51.922Z,185
2016-09-04T13:21:04.211Z,185
2016-09-04T13:22:16.485Z,180
2016-09-04T13:23:28.080Z,185
2016-09-04T13:24:40.617Z,215
2016-09-04T13:25:52.892Z,195
2016-09-04T13:27:05.178Z,230
2016-09-04T13:28:17.495Z,255
2016-09-04T13:29:29.797Z,270
2016-09-04T13:30:42.110Z,265
2016-09-04T13:31:54.424Z,280
2016-09-04T13:33:06.717Z,280
2016-09-04T13:34:19.025Z,300
2016-09-04T13:35:30.624Z,290
2016-09-04T13:36:43.095Z,285
2016-09-04T13:37:55.402Z,300
2016-09-04T13:39:06.989Z,280
2016-09-04T13:40:19.305Z,230
2016-09-04T13:41:30.909Z,225
2016-09-04T13:42:42.497Z,265
2016-09-04T13:43:54.091Z,270
2016-09-04T13:45:06.369Z,280
2016-09-04T13:46:18.009Z,295
2016-09-04T13:47:30.301Z,315
2016-09-04T13:48:41.893Z,300
2016-09-04T13:49:54.201Z,295
2016-09-04T13:51:06.490Z,300
2016-09-04T13:52:18.094Z,300
2016-09-04T13:53:30.403Z,310
2016-09-04T13:54:42.714Z,315
2016-09-04T13:55:55.025Z,280
2016-09-04T13:57:06.603Z,285
2016-09-04T13:58:18.903Z,250
2016-09-04T13:59:31.212Z,225
2016-09-04T14:00:43.525Z,220
2016-09-04T14:01:55.849Z,210
2016-09-04T14:03:08.154Z,205
2016-09-04T14:04:20.455Z,200
2016-09-04T14:05:32.981Z,205
2016-09-04T14:06:45.271Z,230
2016-09-04T14:07:57.572Z,230
2016-09-04T14:09:08.464Z,255
2016-09-04T14:10:20.768Z,275
2016-09-04T14:11:33.055Z,270
2016-09-04T14:12:45.362Z,270
2016-09-04T14:13:57.713Z,270
2016-09-04T14:15:09.304Z,245
2016-09-04T14:16:21.617Z,280
2016-09-04T14:17:33.938Z,300
2016-09-04T14:18:46.195Z,310
2016-09-04T14:19:57.777Z,300
2016-09-04T14:21:10.066Z,290
2016-09-04T14:22:22.391Z,270
2016-09-04T14:23:34.702Z,265
2016-09-04T14:24:47.006Z,270
2016-09-04T14:25:59.284Z,205
2016-09-04T14:27:10.886Z,235
2016-09-04T14:28:23.162Z,215
2016-09-04T14:29:34.105Z,215
2016-09-04T14:30:44.998Z,205
2016-09-04T14:31:57.330Z,185
2016-09-04T14:33:09.163Z,185
2016-09-04T14:34:21.462Z,175
2016-09-04T14:35:33.752Z,185
2016-09-04T14:36:45.354Z,180
2016-09-04T14:37:57.629Z,180
2016-09-04T14:39:09.201Z,175
2016-09-04T14:40:21.503Z,170
2016-09-04T14:41:33.798Z,170
2016-09-04T14:42:46.098Z,165
2016-09-04T14:43:58.379Z,160
2016-09-04T14:45:10.676Z,160
2016-09-04T14:46:22.963Z,160
2016-09-04T14:47:34.549Z,160
2016-09-04T14:48:46.838Z,160
2016-09-04T14:49:59.144Z,160
2016-09-04T14:51:11.436Z,155
2016-09-04T14:52:23.714Z,155
2016-09-04T14:53:36.014Z,155
2016-09-04T14:54:48.300Z,155
2016-09-04T14:56:00.609Z,150
2016-09-04T14:57:12.925Z,150
2016-09-04T14:58:25.216Z,150
2016-09-04T14:59:37.505Z,150
2016-09-04T15:00:49.801Z,165
2016-09-04T15:02:00.032Z,160
2016-09-04T15:03:11.626Z,160
2016-09-04T15:04:23.920Z,160
2016-09-04T15:05:36.229Z,165
2016-09-04T15:06:47.800Z,170
2016-09-04T15:08:00.095Z,170
2016-09-04T15:09:12.380Z,165
2016-09-04T15:10:24.681Z,165
2016-09-04T15:11:36.978Z,165
2016-09-04T15:12:48.557Z,165
2016-09-04T15:14:00.856Z,160
2016-09-04T15:15:13.137Z,170
2016-09-04T15:16:25.438Z,165
2016-09-04T15:17:37.728Z,160
2016-09-04T15:18:50.014Z,185
2016-09-04T15:20:01.614Z,175
2016-09-04T15:21:13.901Z,170
2016-09-04T15:22:26.212Z,160
2016-09-04T15:23:37.797Z,155
2016-09-04T15:24:50.105Z,155
2016-09-04T15:26:01.687Z,150
2016-09-04T15:27:13.983Z,145
2016-09-04T15:28:26.292Z,140
2016-09-04T15:29:38.584Z,135
2016-09-04T15:30:50.909Z,125
2016-09-04T15:32:02.611Z,125
2016-09-04T15:33:14.913Z,115
2016-09-04T15:34:27.232Z,115
2016-09-04T15:35:39.540Z,130
2016-09-04T15:36:51.132Z,120
2016-09-04T15:38:03.413Z,105
2016-09-04T15:39:15.720Z,100
2016-09-04T15:40:27.288Z,95
2016-09-04T15:41:38.906Z,90
2016-09-04T15:42:50.501Z,85
2016-09-04T15:44:02.789Z,80
2016-09-04T15:45:14.386Z,70
2016-09-04T15:46:26.666Z,65
2016-09-04T15:47:38.960Z,65
2016-09-04T15:48:51.253Z,60
2016-09-04T15:50:03.550Z,60
2016-09-04T15:51:15.154Z,55
2016-09-04T15:52:27.443Z,55
2016-09-04T15:53:39.739Z,50
2016-09-04T15:54:51.362Z,50
2016-09-04T15:56:02.279Z,50
2016-09-04T15:57:14.577Z,50
2016-09-04T15:58:26.882Z,50
2016-09-04T15:59:39.168Z,50
2016-09-04T16:00:51.464Z,50
2016-09-04T16:02:03.743Z,50
2016-09-04T16:03:16.040Z,45
2016-09-04T16:04:28.323Z,45
2016-09-04T16:05:39.912Z,45
2016-09-04T16:06:50.777Z,45
2016-09-04T16:08:03.083Z,40
2016-09-04T16:09:15.423Z,40
2016-09-04T16:10:26.291Z,40
2016-09-04T16:11:38.609Z,40
2016-09-04T16:12:50.191Z,40
2016-09-04T16:14:02.495Z,40
2016-09-04T16:15:14.756Z,40
2016-09-04T16:16:26.329Z,40
2016-09-04T16:17:38.643Z,35
2016-09-04T16:18:50.250Z,35
2016-09-04T16:20:02.558Z,35
2016-09-04T16:21:14.862Z,40
2016-09-04T16:22:27.173Z,35
2016-09-04T16:23:38.743Z,35
2016-09-04T16:24:51.015Z,35
2016-09-04T16:26:03.285Z,40
2016-09-04T16:27:15.607Z,40
2016-09-04T16:28:27.917Z,40
2016-09-04T16:29:39.494Z,40
2016-09-04T16:30:51.086Z,40
2016-09-04T16:32:03.381Z,40
2016-09-04T16:33:15.654Z,40
2016-09-04T16:34:27.940Z,45
2016-09-04T16:35:39.558Z,45
2016-09-04T16:36:51.143Z,50
2016-09-04T16:38:03.454Z,50
2016-09-04T16:39:15.764Z,50
2016-09-04T16:40:28.055Z,50
2016-09-04T16:41:40.358Z,50
2016-09-04T16:42:52.665Z,50
2016-09-04T16:44:04.979Z,50
2016-09-04T16:45:17.266Z,45
2016-09-04T16:46:29.567Z,45
2016-09-04T16:47:41.839Z,45
2016-09-04T16:48:53.432Z,40
2016-09-04T16:50:05.023Z,40
2016-09-04T16:51:16.618Z,40
2016-09-04T16:52:28.907Z,40
2016-09-04T16:53:41.203Z,35
2016-09-04T16:54:52.800Z,35
2016-09-04T16:56:05.124Z,30
2016-09-04T16:57:16.714Z,30
2016-09-04T16:58:29.043Z,30
2016-09-04T16:59:41.373Z,25
2016-09-04T17:00:53.670Z,25
2016-09-04T17:02:05.964Z,25
2016-09-04T17:03:18.276Z,25
2016-09-04T17:04:29.860Z,25
2016-09-04T17:05:41.453Z,20
2016-09-04T17:06:53.742Z,20
2016-09-04T17:08:06.058Z,20
2016-09-04T17:09:18.349Z,15
2016-09-04T17:10:30.652Z,15
2016-09-04T17:11:42.954Z,10
2016-09-04T17:12:55.238Z,10
2016-09-04T17:14:07.510Z,10
2016-09-04T17:15:19.809Z,5
2016-09-04T17:16:31.393Z,5
2016-09-04T17:17:43.691Z,5
2016-09-04T17:18:55.973Z,5
2016-09-04T17:20:08.279Z,5
2016-09-04T17:21:19.860Z,0
2016-09-04T17:22:31.446Z,0
2016-09-04T17:23:43.716Z,0
2016-09-04T17:24:56.013Z,0
2016-09-04T17:26:07.585Z,0